Terminal Aerodrome Forecast
Issued by NWS

Home | Current Version | Previous Version | Graphics & Text | Print | Product List | Glossary On
Versions: 1 2 3 4 5 6 7 8 9 10 11 12 13 14 15
000
FTUS43 KMPX 242320
TAFAXN
TAF
KAXN 242320Z 2500/2524 08011KT 5SM -RA BR OVC010
      TEMPO 2500/2503 6SM SCT010 OVC035
     FM250400 05005KT 3SM -RA BR OVC008
     FM250900 01005KT 3SM -RA BR OVC006
     FM251800 03008KT 4SM -RA BR OVC015
     FM252200 23008KT 6SM BR SCT015 BKN025=

USA.gov is the U.S. government's official web portal to all federal, state and local government web resources and services.